Monroe Regional Airport
KMLU : now visible

Airfield :











YOU CAN JOIN US ON...

 
LOGIN :

Register | Disclaimer

   EN    FR    IT 

 









Legend :    VFR   Marginal VFR   IFR   Intensive IFR   Very Intensive IFR
Visi :
Ceiling :
>= 8 km
>= 3000ft
5 to 8 km
1000 to 3000 ft
1500m to 5 km
500 to 1000 ft
800 to 1500m
200 to 500 ft
< 800m
< 200 ft
Symbols :   Thunderstorms  Fog  Heavy snow  Heavy precipitations  Wind > 20 kt







- Airport Elevation : 79 ft
- IATA code : MLU


KMLU - Monroe Regional

CURRENT METAR :
  • 210353Z AUTO 10003KT 8SM BKN055 24/23 A3012 RMK AO2 SLP198 T02440233

EXPIRED METARs :
  • 210253Z 09004KT 9SM SCT055 BKN090 24/23 A3013 RMK AO2 RAE0154 SLP200 P0000 60000 T02390228 51016
  • 210153Z 00000KT 9SM -RA BKN075 BKN090 24/23 A3011 RMK AO2 RAB43 SLP194 P0000 T02440233

TAF KMLU
Valid from the 21 at 00:00 until the 22 at 00:00 UTC


202320Z 2100/2124 24008KT 6SM -RA BR FEW060 SCT080 BKN110
FM210200 VRB04KT P6SM SCT110
FM210600 13004KT P6SM FEW015
FM211600 15007KT P6SM SCT020 SCT040
No reported NOTAMs for that airfield.



MET'MAP, your aeronautical weather chart ! - Copyright ORBIFLY December 2007 - Disclaimer

ORBIFLY MET'MAP TEAM :

Programming & Development : Alexandra Zaïnal
Concept & Development : Baudouin d'Aumeries
Co-Development & Prog : Marc-Olivier Méhu
Technical & hardware support : Manuel Goepfert

Contact : metmap@orbifly.com




SOURCES & CREDITS :

   NOAA       Earth
Advisory